San Benito, California
Current Conditions -  °F | °C
As of 4:53 PM on Sunday 23 Nov 2014 (Local Time) from KSNS Reporting Station
Clear Clear  
Wind Chill: 67°   Ceiling: Unl
Heat Index: 67°   Visibility: 10mi
Dew Point: 43°   Wind: 3mph
Humidity: 42%   Direction: 300°WNW
Pressure: 30.24"   Gusts: NA
Location:  36.4824°N, 120.948°W
Report Text: KSNS 240053Z 30003KT 10SM CLR 19/06 A3024 RMK AO2 SLP248 T01940061
Loading
Personal Weather Stations






























Interactive Weather Map New forecast layout! Learn more

10-Day Weather Forecast

Advertisements
Track Severe Weather on mobile